Time;durP1;ratioP1;P1;durP2;ratioP2;P2;SDS_P1;SDS_P2;PMS_P1;PMS_P2;Temp;Humidity;BMP_temperature;BMP_pressure;BME280_temperature;BME280_humidity;BME280_pressure;Samples;Min_cycle;Max_cycle;Signal;HPM_P1;HPM_P2
2022/01/03 19:39:29;;;;;;;4.43;3.13;;;;;;;;;;5044426;28;20036;-73
2022/01/03 19:41:55;;;;;;;6.97;2.90;;;;;;;;;;5046272;28;20029;-72
2022/01/03 19:44:22;;;;;;;5.00;1.95;;;;;;;;;;5046846;28;20029;-71
2022/01/03 19:46:48;;;;;;;4.30;2.20;;;;;;;;;;5048422;28;20021;-70
2022/01/03 19:49:14;;;;;;;5.10;2.92;;;;;;;;;;5047181;28;20020;-71
2022/01/03 19:51:40;;;;;;;1.83;1.08;;;;;;;;;;5051457;28;20024;-70
2022/01/03 19:54:06;;;;;;;2.22;1.08;;;;;;;;;;5045848;28;20218;-73
2022/01/03 19:56:33;;;;;;;1.13;0.90;;;;;;;;;;5047048;28;20369;-71
2022/01/03 19:58:59;;;;;;;1.25;0.57;;;;;;;;;;5046535;28;20021;-71
2022/01/03 20:01:26;;;;;;;2.00;0.85;;;;;;;;;;5049631;28;20038;-70
2022/01/03 20:03:52;;;;;;;5.47;1.63;;;;;;;;;;5066679;28;20028;-72
2022/01/03 20:06:18;;;;;;;0.93;0.60;;;;;;;;;;5047775;28;20112;-70
2022/01/03 20:08:45;;;;;;;3.10;0.88;;;;;;;;;;5054638;28;20029;-72
2022/01/03 20:11:11;;;;;;;2.63;1.50;;;;;;;;;;5046503;28;20036;-70
2022/01/03 20:13:45;;;;;;;1.00;0.90;;;;;;;;;;5045966;28;20025;-72
2022/01/03 20:16:11;;;;;;;2.33;1.00;;;;;;;;;;5050114;28;20488;-72
2022/01/03 20:18:37;;;;;;;2.50;1.25;;;;;;;;;;5045887;28;20199;-71
2022/01/03 20:21:05;;;;;;;2.13;1.10;;;;;;;;;;5048882;28;20045;-71
2022/01/03 20:23:31;;;;;;;2.33;1.15;;;;;;;;;;5047272;28;20389;-72
2022/01/03 20:25:59;;;;;;;3.35;1.73;;;;;;;;;;5045941;28;20025;-73
2022/01/03 20:28:25;;;;;;;3.53;2.08;;;;;;;;;;5046363;28;20565;-70
2022/01/03 20:30:51;;;;;;;3.67;1.77;;;;;;;;;;5045994;28;20091;-70
2022/01/03 20:33:17;;;;;;;3.25;1.90;;;;;;;;;;5047483;28;20049;-70
2022/01/03 20:35:43;;;;;;;2.88;1.75;;;;;;;;;;5046685;28;20021;-69
2022/01/03 20:38:09;;;;;;;5.35;2.03;;;;;;;;;;5046685;28;20029;-69
2022/01/03 20:40:35;;;;;;;5.90;1.92;;;;;;;;;;5046703;28;20064;-71
2022/01/03 20:43:01;;;;;;;8.52;4.55;;;;;;;;;;5046177;28;20025;-70
2022/01/03 20:45:27;;;;;;;6.63;4.05;;;;;;;;;;5032744;28;20030;-71
2022/01/03 20:47:54;;;;;;;2.78;1.30;;;;;;;;;;5031369;28;20030;-71
2022/01/03 20:50:21;;;;;;;5.55;2.90;;;;;;;;;;5032750;28;20084;-71
2022/01/03 20:52:48;;;;;;;2.65;1.88;;;;;;;;;;5044249;28;20403;-72
2022/01/03 20:55:14;;;;;;;3.63;1.35;;;;;;;;;;5034216;28;20101;-72
2022/01/03 20:57:40;;;;;;;4.68;2.65;;;;;;;;;;5032423;28;20037;-70
2022/01/03 21:00:07;;;;;;;16.33;7.15;;;;;;;;;;5033721;28;20036;-70
2022/01/03 21:02:33;;;;;;;11.48;5.00;;;;;;;;;;5033296;28;20040;-70
2022/01/03 21:05:01;;;;;;;9.00;3.63;;;;;;;;;;5032126;28;20113;-70
2022/01/03 21:07:29;;;;;;;15.13;5.55;;;;;;;;;;5035822;28;20469;-70
2022/01/03 21:09:55;;;;;;;8.82;3.50;;;;;;;;;;5032123;28;20026;-70
2022/01/03 21:12:21;;;;;;;5.70;2.92;;;;;;;;;;5032561;28;20483;-71
2022/01/03 21:14:47;;;;;;;2.53;1.50;;;;;;;;;;5032889;28;20374;-69
2022/01/03 21:17:13;;;;;;;1.75;0.98;;;;;;;;;;5032214;28;20483;-69
2022/01/03 21:19:39;;;;;;;2.00;1.00;;;;;;;;;;5031688;28;20026;-68
2022/01/03 21:22:07;;;;;;;1.58;1.00;;;;;;;;;;5032341;28;20021;-69
2022/01/03 21:24:33;;;;;;;2.13;0.57;;;;;;;;;;5031558;28;20083;-71
2022/01/03 21:26:59;;;;;;;5.68;0.90;;;;;;;;;;5031985;28;20084;-70
2022/01/03 21:29:25;;;;;;;3.05;1.15;;;;;;;;;;5030703;28;20030;-70
2022/01/03 21:31:51;;;;;;;1.52;0.85;;;;;;;;;;5029917;28;20428;-72
2022/01/03 21:34:17;;;;;;;1.80;1.00;;;;;;;;;;5030838;28;20029;-72
2022/01/03 21:36:43;;;;;;;2.00;1.00;;;;;;;;;;5028934;28;20026;-70
2022/01/03 21:39:09;;;;;;;2.75;0.85;;;;;;;;;;5031620;28;20460;-70
2022/01/03 21:41:36;;;;;;;2.63;1.10;;;;;;;;;;5033197;28;20520;-70
2022/01/03 21:44:02;;;;;;;5.85;1.05;;;;;;;;;;5051765;28;20079;-70
2022/01/03 21:46:28;;;;;;;2.08;0.80;;;;;;;;;;5036588;28;20026;-71
2022/01/03 21:48:54;;;;;;;4.13;0.90;;;;;;;;;;5030452;28;20104;-70
2022/01/03 21:51:20;;;;;;;2.80;0.93;;;;;;;;;;5031816;28;20026;-70
2022/01/03 21:53:47;;;;;;;1.63;0.90;;;;;;;;;;5032251;28;20018;-70
2022/01/03 21:56:13;;;;;;;2.63;1.00;;;;;;;;;;5037490;28;20116;-69
2022/01/03 21:58:39;;;;;;;8.50;3.08;;;;;;;;;;5048168;28;20028;-70
2022/01/03 22:01:05;;;;;;;6.45;2.17;;;;;;;;;;5031017;28;20041;-69
2022/01/03 22:03:31;;;;;;;6.88;2.35;;;;;;;;;;5029691;28;20033;-71
2022/01/03 22:05:57;;;;;;;4.60;2.00;;;;;;;;;;5030290;28;20029;-72
2022/01/03 22:08:23;;;;;;;11.68;4.25;;;;;;;;;;5031632;28;20025;-71
2022/01/03 22:10:49;;;;;;;9.45;3.80;;;;;;;;;;5030343;28;20033;-71
2022/01/03 22:13:16;;;;;;;13.93;4.63;;;;;;;;;;5049771;28;20029;-73
